• Join FlightAware (Why Join?)
  • Login
  • US Flag 
05:06AM EDT


 

Airport Tracker/Info


-or-


 

Live Flight TrackerFlight Track Log ✈ ASQ6115 ✈ 06-Jun-2013 ✈ KIAH - KMFE

Flight Track Log - Related Links

Times and Time Zones

All times are in EDT time to prevent confusion due to time zone crossing. See the ASQ6115 flight status page for this flight to view local times or setup timezone preferences in your user account.

Time Position Orientation Groundspeed Altitude Reporting Facility
EDT Latitude Longitude Course Direction KTS MPH feet Rate Location/Type
02:10PM 29.9614 -95.3411 189° South 164 189 700  Level Houston Center
02:11PM 29.9153 -95.3636 203° Southwest 234 269 2,100 1,440 Climbing Houston Center
02:12PM 29.8525 -95.4339 224° Southwest 259 298 4,000 1,020 Climbing Houston Center
02:13PM 29.5869 -95.4122 191° South  Level FlightAware Approximate
02:13PM 29.8011 -95.4931 225° Southwest 266 306 4,500  Level Houston Center
02:14PM 29.4878 -95.4324 190° South  Level FlightAware Approximate
02:14PM 29.7497 -95.5519 225° Southwest 255 293 7,200  Level Houston Center
02:15PM 29.3887 -95.4521 189° South  Level FlightAware Approximate
02:15PM 29.6828 -95.5833 202° Southwest 280 322 9,400  Level Houston Center
02:16PM 29.6022 -95.5822 179° South 292 336 10,300 720 Climbing Houston Center
02:17PM 29.5075 -95.5806 179° South 339 390 10,900 900 Climbing Houston Center
02:18PM 29.3867 -95.5778 179° South 363 418 12,200 1,080 Climbing Houston Center
02:19PM 29.2825 -95.5761 179° South 374 430 13,200 960 Climbing Houston Center
02:20PM 29.1775 -95.5736 179° South 378 435 14,300 960 Climbing Houston Center
02:21PM 29.0878 -95.6219 205° Southwest 370 426 15,300 960 Climbing Houston Center
02:22PM 29.0058 -95.6953 218° Southwest 373 429 16,300 1,080 Climbing Houston Center
02:23PM 28.9092 -95.7858 219° Southwest 375 432 17,600 1,140 Climbing Houston Center
02:24PM 28.8264 -95.8622 219° Southwest 381 438 18,700 1,020 Climbing Houston Center
02:25PM 28.7439 -95.9381 219° Southwest 382 440 19,800 960 Climbing Houston Center
02:26PM 28.6542 -96.0228 220° Southwest 389 448 20,800 960 Climbing Houston Center
02:27PM 28.5678 -96.1017 219° Southwest 394 453 21,900 960 Climbing Houston Center
02:28PM 28.4814 -96.1808 219° Southwest 398 458 22,900 960 Climbing Houston Center
02:29PM 28.3953 -96.2603 219° Southwest 399 459 23,900 960 Climbing Houston Center
02:30PM 28.3100 -96.3381 219° Southwest 395 455 25,000 960 Climbing Houston Center
02:32PM 28.2075 -96.4311 219° Southwest 393 452 26,000 480 Climbing Houston Center
02:33PM 28.1183 -96.5125 219° Southwest 404 465 26,000  Level Houston Center
02:34PM 28.0258 -96.5961 219° Southwest 421 484 26,000  Level Houston Center
02:35PM 27.9314 -96.6811 218° Southwest 430 495 26,000  Level Houston Center
02:36PM 27.8347 -96.7686 219° Southwest 439 505 26,000  Level Houston Center
02:37PM 27.7372 -96.8561 218° Southwest 446 513 26,000  Level Houston Center
02:38PM 27.6217 -96.9619 219° Southwest 446 513 26,000  Level Houston Center
02:39PM 27.5244 -97.0478 218° Southwest 444 511 26,000  Level Houston Center
02:40PM 27.4281 -97.1347 219° Southwest 447 514 26,000  Level Houston Center
02:41PM 27.3300 -97.2211 218° Southwest 447 514 26,000 -180 Level Houston Center
02:42PM 27.2333 -97.3083 219° Southwest 446 513 25,700 -1,380 Descending Houston Center
02:43PM 27.1153 -97.4125 218° Southwest 449 517 23,200 -2,460 Descending Houston Center
02:43PM 27.0639 -97.4581 218° Southwest 448 516 21,900 -2,340 Descending Houston Center
02:44PM 27.0194 -97.4983 219° Southwest 439 505 20,800 -2,520 Descending Houston Center
02:45PM 26.9486 -97.5608 218° Southwest 425 489 18,900 -2,760 Descending Houston Center
02:45PM 26.9214 -97.5872 221° Southwest 434 499 18,000 -3,060 Descending Houston Center
02:46PM 26.8583 -97.6575 225° Southwest 403 464 15,500 -3,360 Descending Houston Center
02:47PM 26.7808 -97.7406 224° Southwest 394 453 11,900 -3,240 Descending Houston Center
02:47PM 26.7592 -97.7653 226° Southwest 378 435 11,400 -1,380 Descending Houston Center
02:48PM 26.7058 -97.8256 225° Southwest 357 411 10,500 -1,080 Descending Houston Center
02:48PM 26.6906 -97.8394 219° Southwest 351 404 10,300 -1,440 Descending Houston Center
02:49PM 26.6456 -97.8897 225° Southwest 292 336 9,100 -1,620 Descending Houston Center
02:49PM 26.6269 -97.9081 221° Southwest 303 349 8,600 -1,800 Descending Houston Center
02:50PM 26.5867 -97.9514 224° Southwest 287 330 7,300 -1,860 Descending Houston Center
02:50PM 26.5697 -97.9692 223° Southwest 289 333 6,700 -1,680 Descending Houston Center
02:51PM 26.5300 -98.0103 223° Southwest 282 325 5,600 -1,560 Descending Houston Center
02:51PM 26.5114 -98.0331 228° Southwest 277 319 5,100 -1,140 Descending Houston Center
02:52PM 26.4772 -98.0686 223° Southwest 273 314 4,500 -780 Descending Houston Center
02:52PM 26.4569 -98.0919 226° Southwest 274 315 4,300 -960 Descending Houston Center
02:53PM 26.4169 -98.1347 224° Southwest 266 306 3,500 -1,080 Descending Houston Center
02:53PM 26.4011 -98.1517 224° Southwest 262 302 3,200 -480 Descending Houston Center
02:54PM 26.3600 -98.1936 222° Southwest 259 298 3,000 -600 Descending Houston Center
02:55PM 26.3053 -98.2544 225° Southwest 261 300 2,200 -840 Descending Houston Center